createdAt,value
2022-10-17T00:03:17.220Z,16.62
2022-10-17T00:10:19.033Z,16.63
2022-10-17T00:17:20.703Z,16.62
2022-10-17T00:24:22.251Z,16.60
2022-10-17T00:31:24.417Z,16.62
2022-10-17T00:38:25.997Z,16.65
2022-10-17T00:45:28.708Z,16.56
2022-10-17T00:52:30.766Z,16.62
2022-10-17T00:59:36.462Z,16.62
2022-10-17T01:06:38.150Z,16.64
2022-10-17T01:13:44.828Z,16.70
2022-10-17T01:21:10.709Z,16.66
2022-10-17T01:28:54.895Z,16.63
2022-10-17T01:36:06.123Z,16.62
2022-10-17T01:43:13.842Z,16.57
2022-10-17T01:50:18.434Z,16.54
2022-10-17T01:57:36.015Z,16.57
2022-10-17T02:04:37.631Z,16.52
2022-10-17T02:11:39.445Z,16.48
2022-10-17T02:19:09.216Z,16.46
2022-10-17T02:26:33.656Z,16.38
2022-10-17T02:33:49.418Z,16.30
2022-10-17T02:40:51.806Z,16.33
2022-10-17T02:48:04.974Z,16.38
2022-10-17T02:55:12.163Z,16.37
2022-10-17T03:02:13.822Z,16.29
2022-10-17T03:09:15.711Z,16.26
2022-10-17T03:16:17.325Z,16.29
2022-10-17T03:23:19.829Z,16.25
2022-10-17T03:30:22.009Z,16.25
2022-10-17T03:37:26.378Z,16.15
2022-10-17T03:44:28.178Z,16.26
2022-10-17T03:51:30.035Z,16.19
2022-10-17T03:58:37.697Z,16.14
2022-10-17T04:05:39.957Z,16.09
2022-10-17T04:12:41.873Z,16.08
2022-10-17T04:19:43.893Z,16.03
2022-10-17T04:26:45.708Z,15.97
2022-10-17T04:33:49.957Z,16.02
2022-10-17T04:40:51.873Z,15.99
2022-10-17T04:47:53.694Z,16.01
2022-10-17T04:54:55.426Z,16.03
2022-10-17T05:01:57.755Z,16.08
2022-10-17T05:09:00.022Z,16.10
2022-10-17T05:16:01.777Z,16.01
2022-10-17T05:23:03.529Z,15.96
2022-10-17T05:30:10.331Z,15.93
2022-10-17T05:37:14.544Z,15.93
2022-10-17T05:44:20.560Z,15.89
2022-10-17T05:51:28.400Z,15.90
2022-10-17T05:58:45.841Z,15.87
2022-10-17T06:06:09.798Z,15.90
2022-10-17T06:13:18.547Z,15.88
2022-10-17T06:20:24.187Z,15.97
2022-10-17T06:27:26.155Z,16.02
2022-10-17T06:34:27.882Z,16.04
2022-10-17T06:41:29.634Z,16.02
2022-10-17T06:48:38.532Z,16.11
2022-10-17T06:56:04.210Z,16.33
2022-10-17T07:03:32.728Z,16.42
2022-10-17T07:10:38.430Z,16.60
2022-10-17T07:17:42.035Z,16.95
2022-10-17T07:24:44.149Z,17.10
2022-10-17T07:32:08.706Z,17.25
2022-10-17T07:39:10.595Z,17.52
2022-10-17T07:46:13.722Z,17.74
2022-10-17T07:53:15.722Z,18.03
2022-10-17T08:00:17.381Z,18.48
2022-10-17T08:07:22.962Z,18.77
2022-10-17T08:14:27.025Z,19.27
2022-10-17T08:21:28.639Z,20.04
2022-10-17T08:28:30.324Z,20.52
2022-10-17T08:35:31.997Z,20.93
2022-10-17T08:42:55.340Z,20.88
2022-10-17T08:49:58.632Z,21.49
2022-10-17T08:57:00.183Z,21.96
2022-10-17T09:04:23.523Z,22.68
2022-10-17T09:11:38.574Z,23.16
2022-10-17T09:18:41.900Z,23.82
2022-10-17T09:25:48.440Z,24.56
2022-10-17T09:32:50.015Z,25.10
2022-10-17T09:39:51.567Z,25.51
2022-10-17T09:47:14.892Z,25.73
2022-10-17T09:54:24.343Z,25.58
2022-10-17T10:01:28.922Z,26.35
2022-10-17T10:08:32.954Z,26.64
2022-10-17T10:15:40.904Z,27.98
2022-10-17T10:22:42.454Z,28.13
2022-10-17T10:29:52.957Z,28.69
2022-10-17T10:36:58.833Z,28.33
2022-10-17T10:44:00.447Z,29.06
2022-10-17T10:51:08.751Z,30.10
2022-10-17T10:58:26.644Z,30.17
2022-10-17T11:05:54.129Z,30.77
2022-10-17T11:13:11.664Z,31.19
2022-10-17T11:20:31.822Z,31.70
2022-10-17T11:27:34.087Z,31.82
2022-10-17T11:34:39.881Z,32.53
2022-10-17T11:41:57.509Z,32.32
2022-10-17T11:49:19.900Z,32.36
2022-10-17T11:56:29.502Z,32.24
2022-10-17T12:03:43.174Z,31.63
2022-10-17T12:11:14.815Z,31.41
2022-10-17T12:18:16.556Z,31.00
2022-10-17T12:25:20.204Z,30.49
2022-10-17T12:32:21.784Z,29.81
2022-10-17T12:39:26.099Z,29.21
2022-10-17T12:46:46.232Z,28.52
2022-10-17T12:54:07.167Z,28.16
2022-10-17T13:01:23.531Z,27.98
2022-10-17T13:08:32.787Z,27.92
2022-10-17T13:15:34.366Z,27.57
2022-10-17T13:22:35.921Z,27.58
2022-10-17T13:29:38.318Z,27.56
2022-10-17T13:36:39.899Z,27.56
2022-10-17T13:43:41.474Z,27.63
2022-10-17T13:50:44.970Z,27.39
2022-10-17T13:57:47.183Z,27.33
2022-10-17T14:05:17.895Z,27.02
2022-10-17T14:12:20.467Z,26.82
2022-10-17T14:19:32.543Z,26.79
2022-10-17T14:26:37.241Z,26.82
2022-10-17T14:33:42.579Z,26.59
2022-10-17T14:40:53.046Z,26.56
2022-10-17T14:47:55.944Z,26.50
2022-10-17T14:54:58.020Z,26.36
2022-10-17T15:01:59.575Z,26.19
2022-10-17T15:09:01.254Z,26.16
2022-10-17T15:16:02.875Z,25.98
2022-10-17T15:23:04.521Z,25.96
2022-10-17T15:30:38.759Z,25.89
2022-10-17T15:37:40.669Z,25.80
2022-10-17T15:44:44.341Z,25.73
2022-10-17T15:51:45.969Z,25.58
2022-10-17T15:58:47.684Z,25.44
2022-10-17T16:05:52.015Z,25.31
2022-10-17T16:12:53.956Z,25.18
2022-10-17T16:19:55.728Z,25.09
2022-10-17T16:26:57.322Z,24.99
2022-10-17T16:33:59.608Z,24.86
2022-10-17T16:41:01.175Z,24.77
2022-10-17T16:48:02.767Z,24.55
2022-10-17T16:55:07.144Z,24.40
2022-10-17T17:02:10.621Z,24.35
2022-10-17T17:09:12.191Z,24.16
2022-10-17T17:16:15.431Z,24.04
2022-10-17T17:23:17.066Z,23.87
2022-10-17T17:30:18.675Z,23.73
2022-10-17T17:37:20.249Z,23.62
2022-10-17T17:44:21.905Z,23.50
2022-10-17T17:51:28.355Z,23.30
2022-10-17T17:58:30.856Z,23.17
2022-10-17T18:05:32.583Z,23.05
2022-10-17T18:12:36.958Z,22.94
2022-10-17T18:19:38.541Z,22.83
2022-10-17T18:26:40.099Z,22.74
2022-10-17T18:33:42.767Z,22.67
2022-10-17T18:40:46.138Z,22.58
2022-10-17T18:47:53.638Z,22.50
2022-10-17T18:54:55.248Z,22.36
2022-10-17T19:01:56.823Z,22.22
2022-10-17T19:09:00.067Z,22.10
2022-10-17T19:16:09.464Z,22.01
2022-10-17T19:23:11.006Z,21.90
2022-10-17T19:30:12.631Z,21.82
2022-10-17T19:37:14.325Z,21.76
2022-10-17T19:44:16.024Z,21.70
2022-10-17T19:51:18.866Z,21.63
2022-10-17T19:58:20.425Z,21.54
2022-10-17T20:05:25.899Z,21.50
2022-10-17T20:12:29.281Z,21.45
2022-10-17T20:19:31.180Z,21.39
2022-10-17T20:26:38.210Z,21.30
2022-10-17T20:33:41.518Z,21.22
2022-10-17T20:40:43.502Z,21.15
2022-10-17T20:47:49.147Z,21.06
2022-10-17T20:54:53.184Z,20.99
2022-10-17T21:01:54.805Z,20.88
2022-10-17T21:08:57.056Z,20.76
2022-10-17T21:16:05.057Z,20.72
2022-10-17T21:23:06.647Z,20.60
2022-10-17T21:37:15.072Z,20.42
2022-10-17T21:44:22.079Z,20.33
2022-10-17T21:51:24.642Z,20.25
2022-10-17T21:58:26.391Z,20.16
2022-10-17T22:05:28.003Z,20.07
2022-10-17T22:12:29.931Z,19.98
2022-10-17T22:19:31.731Z,19.89
2022-10-17T22:26:34.259Z,19.84
2022-10-17T22:33:36.393Z,19.80
2022-10-17T22:40:37.934Z,19.77
2022-10-17T22:47:39.511Z,19.73
2022-10-17T22:54:41.072Z,19.74
2022-10-17T23:01:42.656Z,19.71
2022-10-17T23:08:44.288Z,19.71
2022-10-17T23:15:45.854Z,19.72
2022-10-17T23:22:47.436Z,19.73
2022-10-17T23:29:48.971Z,19.73
2022-10-17T23:36:52.081Z,19.75
2022-10-17T23:43:53.666Z,19.74
2022-10-17T23:50:55.991Z,19.74
2022-10-17T23:57:57.535Z,19.73
